Diego Martín

Recruteur en chef - Burgos
2 Mars 2028
Jeudi
Processus

Personnalité

Adaptabilité (6) Ambition (3) Controverse (17) Loyauté (6) Pression (14) Professionnalisme (3) Sportivité (8) Tempérament (3)

Profil

Style d'entraînement Démocratique
Diplôme Continental B
Détermination 12
Gestion des joueurs 7
Motivation 5
Discipline 9
Satisfaction professionnelle
100%
Fatigue
0%
Rôle Recruteur en chef
Salaire 73.5K p/s
Contrat 14.03.2029

Performance

Comportement Bon
Efficacité de l'entraînement
30%
Développement des joueurs
35%
Prévention des blessures
45%
Mise en place tactique
30%

Événements récents

A participé à une réunion de recrutement 28j
A recommandé une cible de transfert 28j
A recommandé une cible de transfert 35j
A recommandé une cible de transfert 35j
A participé à une réunion de recrutement 35j
A évalué un joueur 35j
A présenté un dossier au conseil 35j
A observé un match 35j

Suivi en cours

96
Joueur Club Statut Capacité Confiance Observé Dernière observation Dernier vote
Ignacio Pérez Cobresal Actif 106 / 110 40% 3 25.01.2028 -
Victor Corona Santos Laguna Négociation 116 / 103 40% 1 25.01.2028 -
José Neto Alverca Actif 130 / 132 40% 1 23.01.2028 -
Facundo Balatti Penarol Actif 103 / 116 40% 1 22.01.2028 -
Mauro Carrizo Atlético Tucumán Actif 102 / 109 40% 1 22.01.2028 -
Rafael Vargas Cortulua Actif 88 / 94 40% 2 19.01.2028 -
Tiago Gordillo San Miguel Actif 81 / 99 40% 1 19.01.2028 -
Jakub Adkonis Korona Actif 104 / 97 40% 1 18.01.2028 -
Alejandro González Cruz Azul Actif 91 / 91 40% 1 18.01.2028 -
Matej Poplatnik Grêmio Négociation 113 / 113 66% 1 01.01.2028 Approuver
Mohamed Sherif Halmstad Actif 110 / 110 67% 1 01.01.2028 Approuver
Johan Cordoba Universitario Popayan Actif 94 / 97 40% 1 31.08.2027 -
Teo Rodríguez Pagano San Lorenzo Actif 123 / 117 40% 2 29.08.2027 -
Adrian Skogmar Malmo FF Actif 105 / 121 40% 1 27.08.2027 -
Martín Jiménez Audax Italiano Actif 91 / 107 40% 1 26.08.2027 -
Mbekezeli Mbokazi Chicago Fire Actif 126 / 131 40% 1 24.08.2027 -
Fabián Correa Barranquilla Actif 90 / 92 40% 5 23.08.2027 -
Godwin Oham Warri Wolves Actif 76 / 98 40% 2 20.08.2027 -
Edwin Asamoah Berekum Chelsea Actif 96 / 86 40% 1 20.08.2027 -
Gady Beyuku Modena Actif 122 / 127 40% 1 18.08.2027 -
Christ Inao Oulaï Fiorentina Actif 137 / 150 40% 1 18.08.2027 -
José Matos Ceuta Actif 137 / 123 40% 1 14.08.2027 -
Mickaël Malsa Mirandés Actif 113 / 127 40% 1 14.08.2027 -
José Arnáiz Granada Actif 123 / 134 40% 1 13.08.2027 -
Sergio Rodelas Granada Actif 121 / 117 40% 3 11.08.2027 -
Federico Martínez Liverpool Montevideo Actif 122 / 113 40% 1 11.08.2027 -
Gustavo Ferrareis Girona Actif 122 / 119 40% 1 09.08.2027 -
José Carlos Lazo Albacete Actif 142 / 128 40% 1 09.08.2027 -
Josh Neufville Bradford City Actif 113 / 107 40% 1 08.08.2027 -
Harry Cornick AFC Wimbledon Actif 107 / 100 40% 1 08.08.2027 -
Bicho Cultural Leonesa Actif 121 / 112 40% 1 04.08.2027 -
Jefry Zapata Once Caldas Actif 125 / 115 40% 1 03.08.2027 -
James Furlong Walsall Actif 102 / 116 40% 1 02.08.2027 -
George Honeyman Blackpool Actif 102 / 115 40% 2 01.08.2027 -
Agus Medina Albacete Actif 123 / 131 40% 3 01.08.2027 -
Josh Murphy Portsmouth Actif 141 / 121 40% 2 31.07.2027 -
Rui Costa Port Vale Actif 121 / 114 40% 2 31.07.2027 -
Nicolás Benedetti Deportivo Cali Actif 120 / 122 40% 1 29.07.2027 -
Simone Kosijer Triestina Actif 108 / 112 40% 2 28.07.2027 -
Jack Moylan Lincoln City Actif 124 / 115 40% 1 28.07.2027 -
Daniel Valencia America de Cali Actif 117 / 119 40% 1 28.07.2027 -
Ángel Peñaranda Mineros de Guayana Actif 82 / 89 40% 1 26.07.2027 -
Fred Onyedinma Bradford City Actif 113 / 112 40% 1 21.07.2027 -
Emerson Batalla Atletico Bucaramanga Actif 126 / 121 40% 1 21.07.2027 -
Jordan Gibson Doncaster Rovers Actif 118 / 101 40% 1 18.07.2027 -
Jack Payne Newport County Actif 118 / 113 40% 3 17.07.2027 -
Mickel Miller Bromley Actif 102 / 103 40% 1 16.07.2027 -
Denys Smetana Inhulets Actif 78 / 96 40% 3 14.07.2027 -
Liam Mandeville Chesterfield Actif 121 / 105 40% 1 14.07.2027 -
Adam Phillips Gillingham Actif 115 / 115 40% 1 14.07.2027 -
Lucas Camilo Puebla Actif 92 / 101 40% 1 14.07.2027 -
Enric Franquesa Leganés Actif 117 / 137 40% 1 12.07.2027 -
Elie N'Gatta Sochaux Actif 103 / 104 40% 1 10.07.2027 -
Milan Roganović Partizan Actif 109 / 119 40% 5 07.07.2027 -
Maxim Radchenko Rostov Actif 88 / 103 40% 2 07.07.2027 -
Jhojan Julio Queretaro Actif 115 / 114 40% 2 07.07.2027 -
Fran Villalba Santos Laguna Actif 114 / 113 40% 1 07.07.2027 -
Rubén Duarte Pumas UNAM Actif 136 / 142 40% 1 06.07.2027 -
Mauricio Amaro Atlanta United FC Actif 105 / 139 40% 2 03.07.2027 -
Ivan Borges Defensores Actif 74 / 90 40% 1 02.07.2027 -
Jordan Graham Newport County Actif 113 / 109 40% 1 01.07.2027 -
Jordi Cortizo Leon Actif 145 / 132 40% 1 28.06.2027 -
Manuel Cicconi Sampdoria Actif 132 / 116 40% 1 24.06.2027 -
Alejandro Organista Puebla Actif 133 / 119 40% 1 24.06.2027 -
Kevin Velasco Puebla Actif 138 / 123 40% 2 23.06.2027 -
Luís Esteves Atlas Actif 138 / 129 40% 1 23.06.2027 -
Jean-Luc Dompé Konyaspor Actif 120 / 116 40% 2 22.06.2027 -
Valentino Massi Sarmiento Actif 95 / 104 40% 1 21.06.2027 -
Fernando Beltrán Leon Actif 124 / 118 40% 2 19.06.2027 -
Marco Oroná Antofagasta Actif 97 / 110 40% 2 14.06.2027 -
Christian Ebere Cruz Azul Actif 135 / 116 40% 1 10.06.2027 -
Nacho Vidal Oviedo Actif 119 / 133 40% 1 10.06.2027 -
Andrija Bulatović RC Lens Actif 126 / 125 40% 1 05.06.2027 -
José Pachuca Puebla Actif 111 / 122 40% 1 02.06.2027 -
Salvi Sánchez Ceuta Actif 129 / 120 51% 1 01.06.2027 -
Juan Pablo De la Reta Maipú Actif 121 / 121 40% 2 27.01.2027 Plus d'infos
Mathieu Brun Chamois Niortais Actif 109 / 131 40% 1 21.01.2027 -
Ignacio Ovando Rosario Central Actif 93 / 115 40% 3 19.01.2027 -
Sergi Guardiola Córdoba Actif 119 / 122 51% 1 18.01.2027 -
Runar Norheim FC Nordsjaelland Actif 111 / 119 40% 1 12.01.2027 -
Marius Courcoul Olympique de Marseille Actif 116 / 128 40% 1 12.01.2027 -
Tiago Freitas Benfica Actif 110 / 114 40% 1 08.01.2027 -
Taras Mykhavko Dynamo Kyiv Actif 113 / 116 40% 1 07.01.2027 -
Galo Galarza Estudiantes Actif 96 / 108 40% 1 05.01.2027 -
Agustín Obregón River Plate Actif 103 / 116 40% 1 04.01.2027 -
Alejo Gelsomino Gimnasia La Plata Actif 99 / 107 40% 1 03.01.2027 -
Facundo Infante Talleres Actif 79 / 88 40% 1 01.01.2027 -
Thiago Martínez Defensa y Justicia Actif 100 / 104 40% 1 31.08.2026 Plus d'infos
Marcos Narváez Independiente Rivadavia Actif 93 / 99 40% 2 24.08.2026 -
Santiago Fernández Talleres Actif 115 / 124 40% 1 22.08.2026 -
Máximo Desábato Estudiantes Actif 105 / 105 40% 1 22.08.2026 -
Facundo Lucero Talleres Actif 96 / 89 40% 1 19.08.2026 -
Santiago Colidio Colón Actif 99 / 104 40% 1 18.08.2026 -
Santiago Acosta Chacarita Juniors Actif 99 / 103 40% 1 17.08.2026 -
Iván González Morón Actif 83 / 98 40% 1 15.08.2026 -
Lautaro Maldonado Instituto Actif 118 / 111 40% 1 01.08.2026 -